Terminal Aerodrome Forecast
Issued by NWS

Home | Current Version | Previous Version | Text Only | Print | Product List | Glossary On
Versions: 1 2 3 4 5 6 7 8 9 10 11 12 13 14 15 16 17 18 19 20 21 22 23
000
FTUS43 KILX 120525 AAC
TAFBMI
TAF AMD
KBMI 120525Z 1205/1306 33019G32KT P6SM OVC010
     FM120800 33018G29KT P6SM OVC020
     FM120900 33018G28KT P6SM BKN035
     FM121000 33017G27KT P6SM SCT200
     FM122200 31013G24KT P6SM SKC
     FM130000 30012KT P6SM SKC=

USA.gov is the U.S. government's official web portal to all federal, state and local government web resources and services.